YYZ weather

Lester B. Pearson International Airport
Toronto, Ontario, Canada

Public forecast

Using degrees Celsius for public forecast. Weather courtesy of forecast.io.

METAR (pilot weather report)

Retrieved 2017/10/19 11:00 UTC (48 minutes ago):

CYYZ 191100Z 20011KT 15SM SCT250 13/09 A3000 RMK CI4 SLP161

TAF (pilot weather forecast)

Retrieved 2017/10/19 09:40 UTC (2 hours ago):

TAF CYYZ 190838Z 1909/2012 21010KT WS005/23030KT P6SM SKC FM191400 25012G22KT P6SM FEW020 SCT180 BECMG 1914/1916 26020G30KT BECMG 1921/1923 28015G25KT FM200200 28010KT P6SM SKC FM201000 30008KT P6SM SKC RMK NXT FCST BY 191200Z